Gornji Humac, Croatia
Current Conditions -  °F | °C
As of 7:00 AM on Saturday 29 Nov 2014 (Local Time) from LDSP Reporting Station
Broken Clouds Broken Clouds  
Wind Chill: 17°   Ceiling: 4000
Heat Index: 17°   Visibility: 6mi
Dew Point: 15°   Wind: 9mph
Humidity: 88%   Direction: 100°E
Pressure: 29.97"   Gusts: NA
Location:  43.29°N, 16.71°E
Report Text: LDSP 290500Z 10008KT 060V140 9999 FEW018 BKN040 17/15 Q1015 NOSIG
Loading
Personal Weather Stations






























Interactive Weather Map New forecast layout! Learn more

10-Day Weather Forecast

Advertisements
Track Severe Weather on mobile